sensor_id;sensor_type;location;lat;lon;timestamp;pressure;altitude;pressure_sealevel;temperature;humidity
20019;BME280;10170;42.502;26.526;2023-06-22T00:01:21;99924.78;;;20.50;nan
20019;BME280;10170;42.502;26.526;2023-06-22T00:03:51;99923.47;;;20.58;nan
20019;BME280;10170;42.502;26.526;2023-06-22T00:06:18;99946.72;;;20.64;nan
20019;BME280;10170;42.502;26.526;2023-06-22T00:08:45;99941.31;;;20.69;nan
20019;BME280;10170;42.502;26.526;2023-06-22T00:11:12;99944.84;;;20.64;nan
20019;BME280;10170;42.502;26.526;2023-06-22T00:13:39;99939.25;;;20.29;nan
20019;BME280;10170;42.502;26.526;2023-06-22T00:16:06;99929.47;;;20.18;nan
20019;BME280;10170;42.502;26.526;2023-06-22T00:18:33;99935.59;;;20.09;nan
20019;BME280;10170;42.502;26.526;2023-06-22T00:21:00;99938.25;;;20.04;nan
20019;BME280;10170;42.502;26.526;2023-06-22T00:23:27;99929.63;;;20.07;nan
20019;BME280;10170;42.502;26.526;2023-06-22T00:25:54;99935.34;;;20.15;nan
20019;BME280;10170;42.502;26.526;2023-06-22T00:28:21;99928.66;;;20.18;nan
20019;BME280;10170;42.502;26.526;2023-06-22T00:30:48;99941.34;;;20.17;nan
20019;BME280;10170;42.502;26.526;2023-06-22T00:33:16;99941.41;;;20.27;nan
20019;BME280;10170;42.502;26.526;2023-06-22T00:35:43;99940.16;;;20.45;nan
20019;BME280;10170;42.502;26.526;2023-06-22T00:38:11;99938.28;;;20.45;nan
20019;BME280;10170;42.502;26.526;2023-06-22T00:40:38;99938.19;;;20.35;nan
20019;BME280;10170;42.502;26.526;2023-06-22T00:43:05;99937.91;;;20.32;nan
20019;BME280;10170;42.502;26.526;2023-06-22T00:45:32;99944.19;;;20.47;nan
20019;BME280;10170;42.502;26.526;2023-06-22T00:48:00;99935.63;;;20.60;nan
20019;BME280;10170;42.502;26.526;2023-06-22T00:50:30;99944.88;;;20.74;nan
20019;BME280;10170;42.502;26.526;2023-06-22T00:53:05;99937.03;;;20.73;nan
20019;BME280;10170;42.502;26.526;2023-06-22T00:55:42;99944.06;;;20.74;nan
20019;BME280;10170;42.502;26.526;2023-06-22T00:58:11;99929.50;;;20.85;nan
20019;BME280;10170;42.502;26.526;2023-06-22T01:00:39;99930.03;;;20.87;nan
20019;BME280;10170;42.502;26.526;2023-06-22T01:03:06;99931.69;;;20.88;nan
20019;BME280;10170;42.502;26.526;2023-06-22T01:05:37;99928.16;;;20.92;nan
20019;BME280;10170;42.502;26.526;2023-06-22T01:08:30;99853.72;;;20.60;nan
20019;BME280;10170;42.502;26.526;2023-06-22T01:11:07;99919.03;;;21.04;nan
20019;BME280;10170;42.502;26.526;2023-06-22T01:16:37;99922.28;;;21.01;nan
20019;BME280;10170;42.502;26.526;2023-06-22T01:22:02;99916.25;;;20.88;nan
20019;BME280;10170;42.502;26.526;2023-06-22T01:24:33;99923.84;;;20.91;nan
20019;BME280;10170;42.502;26.526;2023-06-22T01:27:38;99929.53;;;20.95;nan
20019;BME280;10170;42.502;26.526;2023-06-22T01:30:08;99930.84;;;20.82;nan
20019;BME280;10170;42.502;26.526;2023-06-22T01:32:38;99924.38;;;20.88;nan
20019;BME280;10170;42.502;26.526;2023-06-22T01:35:07;99930.69;;;21.09;nan
20019;BME280;10170;42.502;26.526;2023-06-22T01:37:36;99924.72;;;21.17;nan
20019;BME280;10170;42.502;26.526;2023-06-22T01:40:04;99900.38;;;21.07;nan
20019;BME280;10170;42.502;26.526;2023-06-22T01:42:32;99919.59;;;21.16;nan
20019;BME280;10170;42.502;26.526;2023-06-22T01:45:01;99923.91;;;21.02;nan
20019;BME280;10170;42.502;26.526;2023-06-22T01:47:28;99908.69;;;20.95;nan
20019;BME280;10170;42.502;26.526;2023-06-22T01:49:56;99932.25;;;20.95;nan
20019;BME280;10170;42.502;26.526;2023-06-22T01:52:23;99931.41;;;20.94;nan
20019;BME280;10170;42.502;26.526;2023-06-22T01:54:50;99932.00;;;21.02;nan
20019;BME280;10170;42.502;26.526;2023-06-22T01:57:17;99927.38;;;20.97;nan
20019;BME280;10170;42.502;26.526;2023-06-22T02:02:24;99919.84;;;20.37;nan
20019;BME280;10170;42.502;26.526;2023-06-22T02:04:59;99914.91;;;20.24;nan
20019;BME280;10170;42.502;26.526;2023-06-22T02:07:42;99937.00;;;20.16;nan
20019;BME280;10170;42.502;26.526;2023-06-22T02:10:13;99926.97;;;20.12;nan
20019;BME280;10170;42.502;26.526;2023-06-22T02:12:43;99932.66;;;20.15;nan
20019;BME280;10170;42.502;26.526;2023-06-22T02:15:11;99928.41;;;20.24;nan
20019;BME280;10170;42.502;26.526;2023-06-22T02:17:39;99931.97;;;20.35;nan
20019;BME280;10170;42.502;26.526;2023-06-22T02:20:13;99914.72;;;20.36;nan
20019;BME280;10170;42.502;26.526;2023-06-22T02:22:40;99928.22;;;20.36;nan
20019;BME280;10170;42.502;26.526;2023-06-22T02:25:07;99930.09;;;20.35;nan
20019;BME280;10170;42.502;26.526;2023-06-22T02:27:34;99923.34;;;20.33;nan
20019;BME280;10170;42.502;26.526;2023-06-22T02:30:01;99922.28;;;20.39;nan
20019;BME280;10170;42.502;26.526;2023-06-22T02:32:28;99912.34;;;20.54;nan
20019;BME280;10170;42.502;26.526;2023-06-22T02:34:55;99922.13;;;20.60;nan
20019;BME280;10170;42.502;26.526;2023-06-22T02:37:22;99947.06;;;20.77;nan
20019;BME280;10170;42.502;26.526;2023-06-22T02:39:52;99922.66;;;20.57;nan
20019;BME280;10170;42.502;26.526;2023-06-22T02:42:18;99941.28;;;20.54;nan
20019;BME280;10170;42.502;26.526;2023-06-22T02:44:47;99938.06;;;20.62;nan
20019;BME280;10170;42.502;26.526;2023-06-22T02:47:15;99952.22;;;20.84;nan
20019;BME280;10170;42.502;26.526;2023-06-22T02:49:42;99955.44;;;20.81;nan
20019;BME280;10170;42.502;26.526;2023-06-22T02:52:11;99943.25;;;20.78;nan
20019;BME280;10170;42.502;26.526;2023-06-22T02:54:38;99948.41;;;20.85;nan
20019;BME280;10170;42.502;26.526;2023-06-22T02:57:05;99921.56;;;20.58;nan
20019;BME280;10170;42.502;26.526;2023-06-22T02:59:32;99936.72;;;20.59;nan
20019;BME280;10170;42.502;26.526;2023-06-22T03:01:59;99940.75;;;20.62;nan
20019;BME280;10170;42.502;26.526;2023-06-22T03:04:27;99942.97;;;20.65;nan
20019;BME280;10170;42.502;26.526;2023-06-22T03:06:54;99951.63;;;20.72;nan
20019;BME280;10170;42.502;26.526;2023-06-22T03:09:20;99951.88;;;20.70;nan
20019;BME280;10170;42.502;26.526;2023-06-22T03:11:47;99964.88;;;20.68;nan
20019;BME280;10170;42.502;26.526;2023-06-22T03:14:16;99944.31;;;20.72;nan
20019;BME280;10170;42.502;26.526;2023-06-22T03:16:43;99956.53;;;20.85;nan
20019;BME280;10170;42.502;26.526;2023-06-22T03:19:10;99953.66;;;21.07;nan
20019;BME280;10170;42.502;26.526;2023-06-22T03:21:38;99963.47;;;21.28;nan
20019;BME280;10170;42.502;26.526;2023-06-22T03:24:07;99962.38;;;21.34;nan
20019;BME280;10170;42.502;26.526;2023-06-22T03:26:34;99968.63;;;21.54;nan
20019;BME280;10170;42.502;26.526;2023-06-22T03:29:01;99977.00;;;21.28;nan
20019;BME280;10170;42.502;26.526;2023-06-22T03:31:28;99937.19;;;21.18;nan
20019;BME280;10170;42.502;26.526;2023-06-22T03:33:55;99984.06;;;21.54;nan
20019;BME280;10170;42.502;26.526;2023-06-22T03:36:22;99984.31;;;21.52;nan
20019;BME280;10170;42.502;26.526;2023-06-22T03:38:50;99985.44;;;21.56;nan
20019;BME280;10170;42.502;26.526;2023-06-22T03:41:17;99990.00;;;21.61;nan
20019;BME280;10170;42.502;26.526;2023-06-22T03:43:44;99996.25;;;21.76;nan
20019;BME280;10170;42.502;26.526;2023-06-22T03:46:10;99981.34;;;21.54;nan
20019;BME280;10170;42.502;26.526;2023-06-22T03:48:37;99998.09;;;21.46;nan
20019;BME280;10170;42.502;26.526;2023-06-22T03:51:04;99999.47;;;21.53;nan
20019;BME280;10170;42.502;26.526;2023-06-22T03:53:31;100006.00;;;21.77;nan
20019;BME280;10170;42.502;26.526;2023-06-22T03:55:58;100007.06;;;21.71;nan
20019;BME280;10170;42.502;26.526;2023-06-22T03:58:25;100003.31;;;21.72;nan
20019;BME280;10170;42.502;26.526;2023-06-22T04:00:52;99996.56;;;21.85;nan
20019;BME280;10170;42.502;26.526;2023-06-22T04:03:19;100003.88;;;21.79;nan
20019;BME280;10170;42.502;26.526;2023-06-22T04:05:47;100000.34;;;21.89;nan
20019;BME280;10170;42.502;26.526;2023-06-22T04:08:15;100003.59;;;22.01;nan
20019;BME280;10170;42.502;26.526;2023-06-22T04:10:42;100001.97;;;22.05;nan
20019;BME280;10170;42.502;26.526;2023-06-22T04:13:09;99990.59;;;22.08;nan
20019;BME280;10170;42.502;26.526;2023-06-22T04:15:36;99972.41;;;22.29;nan
20019;BME280;10170;42.502;26.526;2023-06-22T04:18:03;99999.72;;;22.62;nan
20019;BME280;10170;42.502;26.526;2023-06-22T04:20:31;99997.25;;;22.66;nan
20019;BME280;10170;42.502;26.526;2023-06-22T04:22:58;100009.22;;;22.65;nan
20019;BME280;10170;42.502;26.526;2023-06-22T04:25:25;100009.44;;;22.73;nan
20019;BME280;10170;42.502;26.526;2023-06-22T04:27:52;100002.38;;;22.77;nan
20019;BME280;10170;42.502;26.526;2023-06-22T04:30:19;100005.91;;;22.83;nan
20019;BME280;10170;42.502;26.526;2023-06-22T04:32:46;100015.72;;;22.69;nan
20019;BME280;10170;42.502;26.526;2023-06-22T04:35:25;100011.41;;;22.33;nan
20019;BME280;10170;42.502;26.526;2023-06-22T04:37:53;100017.38;;;22.25;nan
20019;BME280;10170;42.502;26.526;2023-06-22T04:40:24;100013.63;;;22.06;nan
20019;BME280;10170;42.502;26.526;2023-06-22T04:42:53;99994.91;;;21.89;nan
20019;BME280;10170;42.502;26.526;2023-06-22T04:45:20;100013.63;;;21.90;nan
20019;BME280;10170;42.502;26.526;2023-06-22T04:47:48;100021.47;;;22.02;nan
20019;BME280;10170;42.502;26.526;2023-06-22T04:50:15;100025.53;;;22.15;nan
20019;BME280;10170;42.502;26.526;2023-06-22T04:52:42;100026.34;;;22.25;nan
20019;BME280;10170;42.502;26.526;2023-06-22T04:55:09;99987.34;;;21.96;nan
20019;BME280;10170;42.502;26.526;2023-06-22T04:57:36;100019.84;;;22.26;nan
20019;BME280;10170;42.502;26.526;2023-06-22T05:00:06;100032.00;;;22.49;nan
20019;BME280;10170;42.502;26.526;2023-06-22T05:02:39;100023.06;;;22.28;nan
20019;BME280;10170;42.502;26.526;2023-06-22T05:05:07;100020.34;;;22.38;nan
20019;BME280;10170;42.502;26.526;2023-06-22T05:07:34;100024.16;;;22.42;nan
20019;BME280;10170;42.502;26.526;2023-06-22T05:10:03;99978.91;;;22.33;nan
20019;BME280;10170;42.502;26.526;2023-06-22T05:12:30;100023.25;;;22.82;nan
20019;BME280;10170;42.502;26.526;2023-06-22T05:14:57;100028.41;;;22.88;nan
20019;BME280;10170;42.502;26.526;2023-06-22T05:17:24;100038.66;;;23.02;nan
20019;BME280;10170;42.502;26.526;2023-06-22T05:19:51;100004.59;;;22.70;nan
20019;BME280;10170;42.502;26.526;2023-06-22T05:22:19;100049.50;;;23.02;nan
20019;BME280;10170;42.502;26.526;2023-06-22T05:24:46;100038.34;;;23.08;nan
20019;BME280;10170;42.502;26.526;2023-06-22T05:27:13;100055.91;;;23.26;nan
20019;BME280;10170;42.502;26.526;2023-06-22T05:29:41;100044.69;;;23.47;nan
20019;BME280;10170;42.502;26.526;2023-06-22T05:32:09;100046.09;;;23.40;nan
20019;BME280;10170;42.502;26.526;2023-06-22T05:34:36;100046.50;;;23.62;nan
20019;BME280;10170;42.502;26.526;2023-06-22T05:37:03;100031.66;;;23.49;nan
20019;BME280;10170;42.502;26.526;2023-06-22T05:39:30;100037.00;;;23.59;nan
20019;BME280;10170;42.502;26.526;2023-06-22T05:41:57;100052.06;;;23.85;nan
20019;BME280;10170;42.502;26.526;2023-06-22T05:44:23;100037.56;;;23.95;nan
20019;BME280;10170;42.502;26.526;2023-06-22T05:46:50;100042.31;;;24.18;nan
20019;BME280;10170;42.502;26.526;2023-06-22T05:49:17;100042.56;;;24.22;nan
20019;BME280;10170;42.502;26.526;2023-06-22T05:51:44;100042.22;;;24.28;nan
20019;BME280;10170;42.502;26.526;2023-06-22T05:54:11;100048.97;;;24.36;nan
20019;BME280;10170;42.502;26.526;2023-06-22T05:56:40;100050.50;;;24.75;nan
20019;BME280;10170;42.502;26.526;2023-06-22T05:59:07;100040.00;;;25.11;nan
20019;BME280;10170;42.502;26.526;2023-06-22T06:01:33;100047.88;;;25.31;nan
20019;BME280;10170;42.502;26.526;2023-06-22T06:04:03;100059.94;;;25.49;nan
20019;BME280;10170;42.502;26.526;2023-06-22T06:06:30;100055.91;;;25.65;nan
20019;BME280;10170;42.502;26.526;2023-06-22T06:08:57;100056.69;;;25.65;nan
20019;BME280;10170;42.502;26.526;2023-06-22T06:11:25;100061.13;;;25.61;nan
20019;BME280;10170;42.502;26.526;2023-06-22T06:13:52;100042.19;;;25.70;nan
20019;BME280;10170;42.502;26.526;2023-06-22T06:16:19;100056.03;;;25.92;nan
20019;BME280;10170;42.502;26.526;2023-06-22T06:18:46;100053.78;;;25.94;nan
20019;BME280;10170;42.502;26.526;2023-06-22T06:21:15;100063.03;;;26.17;nan
20019;BME280;10170;42.502;26.526;2023-06-22T06:23:42;100053.16;;;26.34;nan
20019;BME280;10170;42.502;26.526;2023-06-22T06:26:09;100049.38;;;26.62;nan
20019;BME280;10170;42.502;26.526;2023-06-22T06:28:36;100042.34;;;27.02;nan
20019;BME280;10170;42.502;26.526;2023-06-22T06:31:03;100047.41;;;27.22;nan
20019;BME280;10170;42.502;26.526;2023-06-22T06:33:33;100046.50;;;26.99;nan
20019;BME280;10170;42.502;26.526;2023-06-22T06:36:00;100037.88;;;27.20;nan
20019;BME280;10170;42.502;26.526;2023-06-22T06:38:30;100030.16;;;27.49;nan
20019;BME280;10170;42.502;26.526;2023-06-22T06:40:58;100038.41;;;27.71;nan
20019;BME280;10170;42.502;26.526;2023-06-22T06:43:25;100047.22;;;27.68;nan
20019;BME280;10170;42.502;26.526;2023-06-22T06:45:52;100040.91;;;27.81;nan
20019;BME280;10170;42.502;26.526;2023-06-22T06:48:19;100040.34;;;27.70;nan
20019;BME280;10170;42.502;26.526;2023-06-22T06:50:46;100028.09;;;28.03;nan
20019;BME280;10170;42.502;26.526;2023-06-22T06:53:17;100032.31;;;28.40;nan
20019;BME280;10170;42.502;26.526;2023-06-22T06:55:44;100013.97;;;28.41;nan
20019;BME280;10170;42.502;26.526;2023-06-22T06:58:12;100029.22;;;28.55;nan
20019;BME280;10170;42.502;26.526;2023-06-22T07:00:39;100023.94;;;28.59;nan
20019;BME280;10170;42.502;26.526;2023-06-22T07:03:06;100023.97;;;28.67;nan
20019;BME280;10170;42.502;26.526;2023-06-22T07:05:33;100015.16;;;28.79;nan
20019;BME280;10170;42.502;26.526;2023-06-22T07:08:01;100024.56;;;28.95;nan
20019;BME280;10170;42.502;26.526;2023-06-22T07:10:29;99993.84;;;28.67;nan
20019;BME280;10170;42.502;26.526;2023-06-22T07:12:56;100027.22;;;28.78;nan
20019;BME280;10170;42.502;26.526;2023-06-22T07:15:23;100026.31;;;28.99;nan
20019;BME280;10170;42.502;26.526;2023-06-22T07:17:50;100021.50;;;28.96;nan
20019;BME280;10170;42.502;26.526;2023-06-22T07:20:17;100021.09;;;29.20;nan
20019;BME280;10170;42.502;26.526;2023-06-22T07:22:46;99998.00;;;28.65;nan
20019;BME280;10170;42.502;26.526;2023-06-22T07:25:13;100026.59;;;29.20;nan
20019;BME280;10170;42.502;26.526;2023-06-22T07:30:12;100007.25;;;29.34;nan
20019;BME280;10170;42.502;26.526;2023-06-22T07:32:40;100030.81;;;29.43;nan
20019;BME280;10170;42.502;26.526;2023-06-22T07:35:07;100021.81;;;29.68;nan
20019;BME280;10170;42.502;26.526;2023-06-22T07:37:34;100020.19;;;29.84;nan
20019;BME280;10170;42.502;26.526;2023-06-22T07:40:02;100000.53;;;29.82;nan
20019;BME280;10170;42.502;26.526;2023-06-22T07:42:32;100026.00;;;29.91;nan
20019;BME280;10170;42.502;26.526;2023-06-22T07:44:59;100012.06;;;30.14;nan
20019;BME280;10170;42.502;26.526;2023-06-22T07:47:26;100022.25;;;30.30;nan
20019;BME280;10170;42.502;26.526;2023-06-22T07:49:55;100011.78;;;30.15;nan
20019;BME280;10170;42.502;26.526;2023-06-22T07:52:24;100010.44;;;30.30;nan
20019;BME280;10170;42.502;26.526;2023-06-22T07:54:52;100012.59;;;30.70;nan
20019;BME280;10170;42.502;26.526;2023-06-22T07:57:20;100008.03;;;30.83;nan
20019;BME280;10170;42.502;26.526;2023-06-22T07:59:47;100007.06;;;30.24;nan
20019;BME280;10170;42.502;26.526;2023-06-22T08:02:13;100009.28;;;30.39;nan
20019;BME280;10170;42.502;26.526;2023-06-22T08:04:40;100016.63;;;30.64;nan
20019;BME280;10170;42.502;26.526;2023-06-22T08:07:08;100003.13;;;30.51;nan
20019;BME280;10170;42.502;26.526;2023-06-22T08:09:34;100014.00;;;30.76;nan
20019;BME280;10170;42.502;26.526;2023-06-22T08:12:02;100007.50;;;30.89;nan
20019;BME280;10170;42.502;26.526;2023-06-22T08:14:29;100007.97;;;31.21;nan
20019;BME280;10170;42.502;26.526;2023-06-22T08:16:56;100014.88;;;31.27;nan
20019;BME280;10170;42.502;26.526;2023-06-22T08:19:23;100009.34;;;31.56;nan
20019;BME280;10170;42.502;26.526;2023-06-22T08:21:50;100018.63;;;31.51;nan
20019;BME280;10170;42.502;26.526;2023-06-22T08:24:17;99986.09;;;31.03;nan
20019;BME280;10170;42.502;26.526;2023-06-22T08:26:43;100011.28;;;31.05;nan
20019;BME280;10170;42.502;26.526;2023-06-22T08:29:10;100006.88;;;31.34;nan
20019;BME280;10170;42.502;26.526;2023-06-22T08:31:37;100003.22;;;31.30;nan
20019;BME280;10170;42.502;26.526;2023-06-22T08:34:04;100012.72;;;31.61;nan
20019;BME280;10170;42.502;26.526;2023-06-22T08:36:31;100013.75;;;31.28;nan
20019;BME280;10170;42.502;26.526;2023-06-22T08:39:01;100012.16;;;30.97;nan
20019;BME280;10170;42.502;26.526;2023-06-22T08:41:29;100014.66;;;31.61;nan
20019;BME280;10170;42.502;26.526;2023-06-22T08:43:57;100010.25;;;31.89;nan
20019;BME280;10170;42.502;26.526;2023-06-22T08:46:24;100010.41;;;31.84;nan
20019;BME280;10170;42.502;26.526;2023-06-22T08:48:57;100008.66;;;32.00;nan
20019;BME280;10170;42.502;26.526;2023-06-22T08:51:27;100012.38;;;32.16;nan
20019;BME280;10170;42.502;26.526;2023-06-22T08:53:55;100003.31;;;32.60;nan
20019;BME280;10170;42.502;26.526;2023-06-22T08:56:22;99990.47;;;33.00;nan
20019;BME280;10170;42.502;26.526;2023-06-22T08:58:49;99993.19;;;33.76;nan
20019;BME280;10170;42.502;26.526;2023-06-22T09:01:15;100000.50;;;32.93;nan
20019;BME280;10170;42.502;26.526;2023-06-22T09:03:42;99993.81;;;32.94;nan
20019;BME280;10170;42.502;26.526;2023-06-22T09:06:09;100007.31;;;32.51;nan
20019;BME280;10170;42.502;26.526;2023-06-22T09:08:38;99998.16;;;32.83;nan
20019;BME280;10170;42.502;26.526;2023-06-22T09:11:05;100004.81;;;32.70;nan
20019;BME280;10170;42.502;26.526;2023-06-22T09:13:32;99993.81;;;33.18;nan
20019;BME280;10170;42.502;26.526;2023-06-22T09:15:59;99997.66;;;33.29;nan
20019;BME280;10170;42.502;26.526;2023-06-22T09:18:26;99998.16;;;33.19;nan
20019;BME280;10170;42.502;26.526;2023-06-22T09:20:53;100004.13;;;32.85;nan
20019;BME280;10170;42.502;26.526;2023-06-22T09:23:20;99998.75;;;32.76;nan
20019;BME280;10170;42.502;26.526;2023-06-22T09:25:47;100007.00;;;32.64;nan
20019;BME280;10170;42.502;26.526;2023-06-22T09:28:14;99993.81;;;32.82;nan
20019;BME280;10170;42.502;26.526;2023-06-22T09:30:45;99987.34;;;32.90;nan
20019;BME280;10170;42.502;26.526;2023-06-22T09:33:12;99982.13;;;32.28;nan
20019;BME280;10170;42.502;26.526;2023-06-22T09:35:38;99989.06;;;32.01;nan
20019;BME280;10170;42.502;26.526;2023-06-22T09:38:05;99981.13;;;32.45;nan
20019;BME280;10170;42.502;26.526;2023-06-22T09:40:32;99981.13;;;32.45;nan
20019;BME280;10170;42.502;26.526;2023-06-22T09:43:06;99977.72;;;32.48;nan
20019;BME280;10170;42.502;26.526;2023-06-22T09:45:33;99986.56;;;32.53;nan
20019;BME280;10170;42.502;26.526;2023-06-22T09:48:00;99976.28;;;32.30;nan
20019;BME280;10170;42.502;26.526;2023-06-22T09:50:27;99982.66;;;32.42;nan
20019;BME280;10170;42.502;26.526;2023-06-22T09:52:54;99978.53;;;32.60;nan
20019;BME280;10170;42.502;26.526;2023-06-22T09:55:22;99971.31;;;32.68;nan
20019;BME280;10170;42.502;26.526;2023-06-22T09:57:49;99967.63;;;32.76;nan
20019;BME280;10170;42.502;26.526;2023-06-22T10:00:16;99977.59;;;32.56;nan
20019;BME280;10170;42.502;26.526;2023-06-22T10:02:43;99971.75;;;33.06;nan
20019;BME280;10170;42.502;26.526;2023-06-22T10:05:11;99981.72;;;32.50;nan
20019;BME280;10170;42.502;26.526;2023-06-22T10:07:39;99975.97;;;32.43;nan
20019;BME280;10170;42.502;26.526;2023-06-22T10:10:10;99970.66;;;32.26;nan
20019;BME280;10170;42.502;26.526;2023-06-22T10:12:42;99979.22;;;32.69;nan
20019;BME280;10170;42.502;26.526;2023-06-22T10:15:10;99971.47;;;32.39;nan
20019;BME280;10170;42.502;26.526;2023-06-22T10:17:37;99968.53;;;31.99;nan
20019;BME280;10170;42.502;26.526;2023-06-22T10:20:08;99973.34;;;31.49;nan
20019;BME280;10170;42.502;26.526;2023-06-22T10:22:43;99968.81;;;31.03;nan
20019;BME280;10170;42.502;26.526;2023-06-22T10:25:11;99968.34;;;31.01;nan
20019;BME280;10170;42.502;26.526;2023-06-22T10:27:39;99962.91;;;31.13;nan
20019;BME280;10170;42.502;26.526;2023-06-22T10:30:09;99957.81;;;31.65;nan
20019;BME280;10170;42.502;26.526;2023-06-22T10:32:37;99959.25;;;31.71;nan
20019;BME280;10170;42.502;26.526;2023-06-22T10:35:05;99923.59;;;31.42;nan
20019;BME280;10170;42.502;26.526;2023-06-22T10:37:32;99960.44;;;31.61;nan
20019;BME280;10170;42.502;26.526;2023-06-22T10:39:59;99955.78;;;32.39;nan
20019;BME280;10170;42.502;26.526;2023-06-22T10:42:26;99952.59;;;32.61;nan
20019;BME280;10170;42.502;26.526;2023-06-22T10:44:53;99909.88;;;32.67;nan
20019;BME280;10170;42.502;26.526;2023-06-22T10:47:19;99950.19;;;32.03;nan
20019;BME280;10170;42.502;26.526;2023-06-22T10:49:46;99945.34;;;32.00;nan
20019;BME280;10170;42.502;26.526;2023-06-22T10:52:13;99955.41;;;31.63;nan
20019;BME280;10170;42.502;26.526;2023-06-22T10:54:41;99926.72;;;31.32;nan
20019;BME280;10170;42.502;26.526;2023-06-22T10:57:07;99947.91;;;31.31;nan
20019;BME280;10170;42.502;26.526;2023-06-22T10:59:34;99951.03;;;31.00;nan
20019;BME280;10170;42.502;26.526;2023-06-22T11:02:01;99945.53;;;31.00;nan
20019;BME280;10170;42.502;26.526;2023-06-22T11:04:29;99940.44;;;31.11;nan
20019;BME280;10170;42.502;26.526;2023-06-22T11:06:56;99936.38;;;31.58;nan
20019;BME280;10170;42.502;26.526;2023-06-22T11:09:23;99944.72;;;32.15;nan
20019;BME280;10170;42.502;26.526;2023-06-22T11:11:55;99941.50;;;32.13;nan
20019;BME280;10170;42.502;26.526;2023-06-22T11:14:22;99945.53;;;32.40;nan
20019;BME280;10170;42.502;26.526;2023-06-22T11:16:49;99950.41;;;31.98;nan
20019;BME280;10170;42.502;26.526;2023-06-22T11:19:17;99946.13;;;32.33;nan
20019;BME280;10170;42.502;26.526;2023-06-22T11:21:44;99938.53;;;31.85;nan
20019;BME280;10170;42.502;26.526;2023-06-22T11:24:11;99937.72;;;31.52;nan
20019;BME280;10170;42.502;26.526;2023-06-22T11:26:38;99946.75;;;31.73;nan
20019;BME280;10170;42.502;26.526;2023-06-22T11:29:04;99924.19;;;31.47;nan
20019;BME280;10170;42.502;26.526;2023-06-22T11:31:32;99932.56;;;31.83;nan
20019;BME280;10170;42.502;26.526;2023-06-22T11:33:59;99943.38;;;31.68;nan
20019;BME280;10170;42.502;26.526;2023-06-22T11:36:26;99925.09;;;32.04;nan
20019;BME280;10170;42.502;26.526;2023-06-22T11:38:53;99934.22;;;32.53;nan
20019;BME280;10170;42.502;26.526;2023-06-22T11:41:20;99915.84;;;32.45;nan
20019;BME280;10170;42.502;26.526;2023-06-22T11:43:47;99922.91;;;31.98;nan
20019;BME280;10170;42.502;26.526;2023-06-22T11:46:14;99922.09;;;31.77;nan
20019;BME280;10170;42.502;26.526;2023-06-22T11:48:41;99934.03;;;31.48;nan
20019;BME280;10170;42.502;26.526;2023-06-22T11:51:07;99928.88;;;31.47;nan
20019;BME280;10170;42.502;26.526;2023-06-22T11:53:35;99918.72;;;32.49;nan
20019;BME280;10170;42.502;26.526;2023-06-22T11:56:02;99920.56;;;33.33;nan
20019;BME280;10170;42.502;26.526;2023-06-22T11:58:29;99924.94;;;33.34;nan
20019;BME280;10170;42.502;26.526;2023-06-22T12:00:55;99921.97;;;33.27;nan
20019;BME280;10170;42.502;26.526;2023-06-22T12:03:23;99918.66;;;32.00;nan
20019;BME280;10170;42.502;26.526;2023-06-22T12:05:50;99922.38;;;31.51;nan
20019;BME280;10170;42.502;26.526;2023-06-22T12:08:18;99926.03;;;31.88;nan
20019;BME280;10170;42.502;26.526;2023-06-22T12:10:45;99916.38;;;32.15;nan
20019;BME280;10170;42.502;26.526;2023-06-22T12:13:12;99911.03;;;32.42;nan
20019;BME280;10170;42.502;26.526;2023-06-22T12:15:39;99913.53;;;32.83;nan
20019;BME280;10170;42.502;26.526;2023-06-22T12:18:06;99904.13;;;32.84;nan
20019;BME280;10170;42.502;26.526;2023-06-22T12:20:33;99918.81;;;32.88;nan
20019;BME280;10170;42.502;26.526;2023-06-22T12:23:00;99900.81;;;32.67;nan
20019;BME280;10170;42.502;26.526;2023-06-22T12:25:27;99915.97;;;32.73;nan
20019;BME280;10170;42.502;26.526;2023-06-22T12:27:53;99904.16;;;31.59;nan
20019;BME280;10170;42.502;26.526;2023-06-22T12:30:20;99921.63;;;31.22;nan
20019;BME280;10170;42.502;26.526;2023-06-22T12:32:47;99908.50;;;31.07;nan
20019;BME280;10170;42.502;26.526;2023-06-22T12:35:14;99913.97;;;30.86;nan
20019;BME280;10170;42.502;26.526;2023-06-22T12:37:41;99899.66;;;31.01;nan
20019;BME280;10170;42.502;26.526;2023-06-22T12:40:09;99906.78;;;30.64;nan
20019;BME280;10170;42.502;26.526;2023-06-22T12:42:36;99898.50;;;31.76;nan
20019;BME280;10170;42.502;26.526;2023-06-22T12:45:04;99909.75;;;31.83;nan
20019;BME280;10170;42.502;26.526;2023-06-22T12:47:31;99905.59;;;31.24;nan
20019;BME280;10170;42.502;26.526;2023-06-22T12:49:58;99894.50;;;32.30;nan
20019;BME280;10170;42.502;26.526;2023-06-22T12:52:25;99896.41;;;33.54;nan
20019;BME280;10170;42.502;26.526;2023-06-22T12:54:52;99899.34;;;33.61;nan
20019;BME280;10170;42.502;26.526;2023-06-22T12:57:21;99899.97;;;33.42;nan
20019;BME280;10170;42.502;26.526;2023-06-22T12:59:48;99891.34;;;33.16;nan
20019;BME280;10170;42.502;26.526;2023-06-22T13:02:15;99895.59;;;34.28;nan
20019;BME280;10170;42.502;26.526;2023-06-22T13:04:42;99902.25;;;33.40;nan
20019;BME280;10170;42.502;26.526;2023-06-22T13:07:10;99901.03;;;34.09;nan
20019;BME280;10170;42.502;26.526;2023-06-22T13:09:48;99901.47;;;34.26;nan
20019;BME280;10170;42.502;26.526;2023-06-22T13:12:20;99896.31;;;34.56;nan
20019;BME280;10170;42.502;26.526;2023-06-22T13:14:47;99902.53;;;34.37;nan
20019;BME280;10170;42.502;26.526;2023-06-22T13:17:14;99893.44;;;33.07;nan
20019;BME280;10170;42.502;26.526;2023-06-22T13:19:41;99902.41;;;33.32;nan
20019;BME280;10170;42.502;26.526;2023-06-22T13:24:55;99885.75;;;34.77;nan